Time;durP1;ratioP1;P1;durP2;ratioP2;P2;SDS_P1;SDS_P2;PMS_P1;PMS_P2;Temp;Humidity;BMP_temperature;BMP_pressure;BME280_temperature;BME280_humidity;BME280_pressure;Samples;Min_cycle;Max_cycle;Signal;HPM_P1;HPM_P2
2023/12/10 00:00:26;;;;;;;;;;;8.70;99.90;;;;;;5039177;28;19955;-71
2023/12/10 00:02:52;;;;;;;;;;;8.70;99.90;;;;;;5046385;28;20585;-71
2023/12/10 00:05:18;;;;;;;;;;;8.70;99.90;;;;;;5046339;28;19928;-71
2023/12/10 00:07:43;;;;;;;;;;;8.60;99.90;;;;;;5046251;28;20051;-71
2023/12/10 00:10:09;;;;;;;;;;;8.70;99.90;;;;;;5043509;28;19982;-71
2023/12/10 00:12:35;;;;;;;;;;;8.70;99.90;;;;;;5036853;28;19929;-71
2023/12/10 00:15:00;;;;;;;;;;;8.70;99.90;;;;;;5048803;28;20395;-70
2023/12/10 00:17:26;;;;;;;;;;;8.70;99.90;;;;;;5048389;28;19929;-71
2023/12/10 00:19:52;;;;;;;;;;;8.70;99.90;;;;;;5049254;28;19932;-72
2023/12/10 00:22:17;;;;;;;;;;;8.60;99.90;;;;;;5036178;28;19964;-71
2023/12/10 00:24:43;;;;;;;;;;;8.70;99.90;;;;;;5045103;28;19925;-71
2023/12/10 00:27:09;;;;;;;;;;;8.70;99.90;;;;;;5047492;28;19939;-71
2023/12/10 00:29:35;;;;;;;;;;;8.70;99.90;;;;;;5038064;28;20007;-71
2023/12/10 00:32:01;;;;;;;;;;;8.60;99.90;;;;;;5030256;28;20032;-71
2023/12/10 00:34:26;;;;;;;;;;;8.60;99.90;;;;;;5029549;28;19925;-71
2023/12/10 00:36:52;;;;;;;;;;;8.70;99.90;;;;;;5030446;28;20351;-71
2023/12/10 00:39:17;;;;;;;;;;;8.60;99.90;;;;;;5029086;28;19936;-71
2023/12/10 00:41:43;;;;;;;;;;;8.60;99.90;;;;;;5038677;28;19965;-71
2023/12/10 00:44:09;;;;;;;;;;;8.60;99.90;;;;;;5047872;28;19924;-72
2023/12/10 00:46:34;;;;;;;;;;;8.60;99.90;;;;;;5048213;28;19925;-71
2023/12/10 00:49:00;;;;;;;;;;;8.60;99.90;;;;;;5048611;28;20398;-71
2023/12/10 00:51:25;;;;;;;;;;;8.60;99.90;;;;;;5044841;28;20328;-71
2023/12/10 00:53:51;;;;;;;;;;;8.60;99.90;;;;;;5046789;28;19925;-71
2023/12/10 00:56:17;;;;;;;;;;;8.60;99.90;;;;;;5047553;28;19968;-71
2023/12/10 00:58:43;;;;;;;;;;;8.60;99.90;;;;;;5048730;28;20034;-71
2023/12/10 01:01:08;;;;;;;;;;;8.60;99.90;;;;;;5045397;28;20051;-71
2023/12/10 01:03:34;;;;;;;;;;;8.60;99.90;;;;;;5047999;28;20344;-71
2023/12/10 01:06:04;;;;;;;;;;;8.60;99.90;;;;;;5046134;28;19932;-71
2023/12/10 01:08:30;;;;;;;;;;;8.60;99.90;;;;;;5047377;28;20364;-71
2023/12/10 01:10:56;;;;;;;;;;;8.60;99.90;;;;;;5047492;28;19925;-71
2023/12/10 01:13:24;;;;;;;;;;;8.60;99.90;;;;;;5047510;28;19936;-71
2023/12/10 01:15:54;;;;;;;;;;;8.60;99.90;;;;;;5046179;28;20376;-71
2023/12/10 01:18:20;;;;;;;;;;;8.60;99.90;;;;;;5047505;28;19935;-71
2023/12/10 01:20:46;;;;;;;;;;;8.60;99.90;;;;;;5047545;28;19925;-71
2023/12/10 01:23:12;;;;;;;;;;;8.60;99.90;;;;;;5047410;28;20019;-71
2023/12/10 01:25:37;;;;;;;;;;;8.50;99.90;;;;;;5047353;28;19925;-71
2023/12/10 01:28:03;;;;;;;;;;;8.50;99.90;;;;;;5048213;28;19932;-71
2023/12/10 01:30:29;;;;;;;;;;;8.50;99.90;;;;;;5047761;28;19989;-71
2023/12/10 01:32:58;;;;;;;;;;;8.50;99.90;;;;;;5048183;28;19932;-72
2023/12/10 01:35:23;;;;;;;;;;;8.40;99.90;;;;;;5047239;28;19925;-71
2023/12/10 01:37:49;;;;;;;;;;;8.40;99.90;;;;;;5035144;28;20246;-71
2023/12/10 01:40:15;;;;;;;;;;;8.30;99.90;;;;;;5045972;28;19925;-71
2023/12/10 01:42:47;;;;;;;;;;;8.30;99.90;;;;;;5047874;28;19947;-71
2023/12/10 01:45:13;;;;;;;;;;;8.30;99.90;;;;;;5048268;28;19932;-72
2023/12/10 01:47:40;;;;;;;;;;;8.30;99.90;;;;;;5048281;28;19928;-72
2023/12/10 01:50:07;;;;;;;;;;;8.30;99.90;;;;;;5047300;28;20365;-72
2023/12/10 01:52:34;;;;;;;;;;;8.20;99.90;;;;;;5047199;28;19932;-72
2023/12/10 01:55:03;;;;;;;;;;;8.20;99.90;;;;;;5044547;28;19929;-71
2023/12/10 01:57:30;;;;;;;;;;;8.20;99.90;;;;;;5047518;28;19932;-71
2023/12/10 01:59:57;;;;;;;;;;;8.20;99.90;;;;;;5046999;28;19932;-72
2023/12/10 02:02:22;;;;;;;;;;;8.20;99.90;;;;;;5037157;28;20292;-71
2023/12/10 02:04:48;;;;;;;;;;;8.20;99.90;;;;;;5034325;28;19929;-72
2023/12/10 02:07:14;;;;;;;;;;;8.20;99.90;;;;;;5045703;28;19952;-71
2023/12/10 02:09:40;;;;;;;;;;;8.20;99.90;;;;;;5034682;28;20074;-71
2023/12/10 02:12:06;;;;;;;;;;;8.10;99.90;;;;;;5046462;28;19928;-71
2023/12/10 02:14:31;;;;;;;;;;;8.10;99.90;;;;;;5046396;28;20023;-71
2023/12/10 02:16:57;;;;;;;;;;;8.10;99.90;;;;;;5046617;28;20369;-71
2023/12/10 02:19:22;;;;;;;;;;;8.10;99.90;;;;;;5047354;28;19925;-71
2023/12/10 02:21:50;;;;;;;;;;;8.10;99.90;;;;;;5048785;28;20442;-72
2023/12/10 02:24:20;;;;;;;;;;;8.10;99.90;;;;;;5044271;28;19921;-71
2023/12/10 02:26:46;;;;;;;;;;;8.10;99.90;;;;;;5046719;28;20011;-71
2023/12/10 02:29:12;;;;;;;;;;;8.10;99.90;;;;;;5040979;28;20019;-71
2023/12/10 02:31:38;;;;;;;;;;;8.10;99.90;;;;;;5048971;28;19979;-71
2023/12/10 02:34:03;;;;;;;;;;;8.10;99.90;;;;;;5047482;28;19929;-72
2023/12/10 02:36:29;;;;;;;;;;;8.10;99.90;;;;;;5044778;28;20019;-71
2023/12/10 02:38:54;;;;;;;;;;;8.10;99.90;;;;;;5050101;28;19925;-72
2023/12/10 02:41:20;;;;;;;;;;;8.10;99.90;;;;;;5051525;28;20403;-71
2023/12/10 02:43:45;;;;;;;;;;;8.10;99.90;;;;;;5050191;28;19976;-71
2023/12/10 02:46:11;;;;;;;;;;;8.10;99.90;;;;;;5050653;28;19932;-71
2023/12/10 02:48:37;;;;;;;;;;;8.00;99.90;;;;;;5051052;28;20385;-71
2023/12/10 02:51:02;;;;;;;;;;;8.00;99.90;;;;;;5050694;28;19994;-71
2023/12/10 02:53:28;;;;;;;;;;;8.10;99.90;;;;;;5049551;28;20024;-72
2023/12/10 02:55:53;;;;;;;;;;;8.10;99.90;;;;;;5049916;28;19948;-71
2023/12/10 02:58:19;;;;;;;;;;;8.00;99.90;;;;;;5048487;28;20114;-71
2023/12/10 03:00:45;;;;;;;;;;;8.00;99.90;;;;;;5046606;28;20340;-71
2023/12/10 03:03:10;;;;;;;;;;;8.00;99.90;;;;;;5044645;28;19925;-71
2023/12/10 03:05:36;;;;;;;;;;;8.10;99.90;;;;;;5044996;28;19932;-71
2023/12/10 03:08:01;;;;;;;;;;;8.10;99.90;;;;;;5035971;28;20373;-71
2023/12/10 03:10:27;;;;;;;;;;;8.00;99.90;;;;;;5049133;28;20050;-71
2023/12/10 03:12:52;;;;;;;;;;;8.00;99.90;;;;;;5049558;28;19956;-71
2023/12/10 03:15:18;;;;;;;;;;;8.00;99.90;;;;;;5051453;28;19929;-72
2023/12/10 03:17:44;;;;;;;;;;;8.00;99.90;;;;;;5051453;28;20308;-71
2023/12/10 03:20:11;;;;;;;;;;;8.00;99.90;;;;;;5049077;28;19963;-71
2023/12/10 03:22:37;;;;;;;;;;;8.00;99.90;;;;;;5048147;28;19929;-71
2023/12/10 03:25:03;;;;;;;;;;;8.00;99.90;;;;;;5046263;28;19979;-71
2023/12/10 03:27:29;;;;;;;;;;;8.00;99.90;;;;;;5032188;28;19925;-71
2023/12/10 03:29:55;;;;;;;;;;;8.00;99.90;;;;;;5051629;28;19925;-71
2023/12/10 03:32:20;;;;;;;;;;;8.00;99.90;;;;;;5050133;28;19940;-71
2023/12/10 03:34:46;;;;;;;;;;;8.00;99.90;;;;;;5049840;28;19936;-72
2023/12/10 03:37:11;;;;;;;;;;;8.00;99.90;;;;;;5050946;28;20059;-71
2023/12/10 03:39:37;;;;;;;;;;;8.00;99.90;;;;;;5048114;28;19929;-72
2023/12/10 03:42:03;;;;;;;;;;;7.90;99.90;;;;;;5050353;28;20395;-72
2023/12/10 03:44:31;;;;;;;;;;;7.90;99.90;;;;;;5049511;28;19936;-72
2023/12/10 03:46:57;;;;;;;;;;;7.90;99.90;;;;;;5049100;28;19931;-71
2023/12/10 03:49:23;;;;;;;;;;;7.90;99.90;;;;;;5049868;28;20308;-72
2023/12/10 03:51:48;;;;;;;;;;;7.90;99.90;;;;;;5051268;28;19996;-72
2023/12/10 03:54:14;;;;;;;;;;;7.90;99.90;;;;;;5048839;28;19928;-72
2023/12/10 03:56:40;;;;;;;;;;;8.20;99.90;;;;;;5050053;28;19987;-72
2023/12/10 03:59:05;;;;;;;;;;;7.90;99.90;;;;;;5050318;28;19925;-73
2023/12/10 04:01:31;;;;;;;;;;;7.90;99.90;;;;;;5050118;28;20659;-71
2023/12/10 04:03:56;;;;;;;;;;;7.90;99.90;;;;;;5046814;28;20372;-71
2023/12/10 04:06:22;;;;;;;;;;;7.90;99.90;;;;;;5050840;28;19978;-71
2023/12/10 04:08:49;;;;;;;;;;;7.90;99.90;;;;;;5046980;28;19983;-72
2023/12/10 04:11:21;;;;;;;;;;;7.90;99.90;;;;;;5048737;28;19925;-72
2023/12/10 04:13:47;;;;;;;;;;;7.90;99.90;;;;;;5049352;28;20015;-72
2023/12/10 04:16:22;;;;;;;;;;;7.90;99.90;;;;;;5049172;28;20019;-72
2023/12/10 04:18:48;;;;;;;;;;;7.90;99.90;;;;;;5045529;28;19929;-72
2023/12/10 04:21:13;;;;;;;;;;;7.90;99.90;;;;;;5047996;28;20359;-72
2023/12/10 04:23:39;;;;;;;;;;;7.90;99.90;;;;;;5045142;28;19931;-72
2023/12/10 04:26:04;;;;;;;;;;;7.30;99.90;;;;;;5038678;28;19968;-72
2023/12/10 04:28:30;;;;;;;;;;;8.00;99.90;;;;;;5049063;28;19925;-72
2023/12/10 04:30:55;;;;;;;;;;;7.90;99.90;;;;;;5048169;28;19955;-72
2023/12/10 04:33:21;;;;;;;;;;;8.00;99.90;;;;;;5050708;28;19925;-72
2023/12/10 04:35:47;;;;;;;;;;;8.00;99.90;;;;;;5048634;28;19932;-72
2023/12/10 04:38:12;;;;;;;;;;;8.00;99.90;;;;;;5047303;28;19939;-72
2023/12/10 04:40:38;;;;;;;;;;;8.00;99.90;;;;;;5048624;28;19929;-72
2023/12/10 04:43:05;;;;;;;;;;;8.00;99.90;;;;;;5048822;28;19925;-71
2023/12/10 04:45:30;;;;;;;;;;;8.00;99.90;;;;;;5050592;28;19932;-72
2023/12/10 04:47:56;;;;;;;;;;;8.10;99.90;;;;;;5049201;28;20398;-72
2023/12/10 04:50:26;;;;;;;;;;;8.10;99.90;;;;;;5048102;28;20311;-72
2023/12/10 04:52:52;;;;;;;;;;;8.10;99.90;;;;;;5047580;28;19977;-72
2023/12/10 04:55:17;;;;;;;;;;;8.20;99.90;;;;;;5049597;28;20345;-72
2023/12/10 04:57:43;;;;;;;;;;;8.10;99.90;;;;;;5050118;28;19960;-72
2023/12/10 05:00:09;;;;;;;;;;;8.20;99.90;;;;;;5048712;28;20392;-72
2023/12/10 05:02:35;;;;;;;;;;;8.20;99.90;;;;;;5048178;28;19931;-72
2023/12/10 05:05:00;;;;;;;;;;;8.30;99.90;;;;;;5038037;28;19925;-72
2023/12/10 05:07:26;;;;;;;;;;;8.30;99.90;;;;;;5038495;28;19928;-72
2023/12/10 05:09:51;;;;;;;;;;;8.30;99.90;;;;;;5040903;28;20300;-71
2023/12/10 05:12:17;;;;;;;;;;;8.30;99.90;;;;;;5048521;28;20065;-71
2023/12/10 05:14:43;;;;;;;;;;;8.30;99.90;;;;;;5048299;28;19925;-71
2023/12/10 05:17:08;;;;;;;;;;;8.40;99.90;;;;;;5044206;28;19929;-71
2023/12/10 05:19:34;;;;;;;;;;;8.40;99.90;;;;;;5049312;28;19932;-71
2023/12/10 05:21:59;;;;;;;;;;;8.40;99.90;;;;;;5048237;28;20365;-71
2023/12/10 05:24:25;;;;;;;;;;;8.30;99.90;;;;;;5046971;28;19935;-71
2023/12/10 05:26:51;;;;;;;;;;;8.30;99.90;;;;;;5049861;28;20288;-70
2023/12/10 05:29:16;;;;;;;;;;;8.30;99.90;;;;;;5047466;28;19957;-71
2023/12/10 05:31:42;;;;;;;;;;;7.90;99.90;;;;;;5048932;28;20556;-71
2023/12/10 05:34:08;;;;;;;;;;;8.40;99.90;;;;;;5046369;28;19935;-71
2023/12/10 05:36:34;;;;;;;;;;;8.40;99.90;;;;;;5049277;28;20003;-71
2023/12/10 05:38:59;;;;;;;;;;;8.40;99.90;;;;;;5044425;28;20000;-71
2023/12/10 05:41:25;;;;;;;;;;;8.40;99.90;;;;;;5037034;28;19929;-71
2023/12/10 05:43:51;;;;;;;;;;;8.40;99.90;;;;;;5044177;28;19933;-71
2023/12/10 05:46:16;;;;;;;;;;;8.40;99.90;;;;;;5047747;28;19931;-71
2023/12/10 05:48:42;;;;;;;;;;;8.40;99.90;;;;;;5049284;28;20132;-71
2023/12/10 05:51:08;;;;;;;;;;;8.40;99.90;;;;;;5028663;28;19987;-71
2023/12/10 05:53:33;;;;;;;;;;;8.40;99.90;;;;;;5028299;28;19925;-71
2023/12/10 05:56:02;;;;;;;;;;;8.50;99.90;;;;;;5048361;28;19925;-70
2023/12/10 05:58:27;;;;;;;;;;;8.40;99.90;;;;;;5048673;28;20339;-70
2023/12/10 06:00:53;;;;;;;;;;;8.40;99.90;;;;;;5028680;28;20016;-69
2023/12/10 06:03:19;;;;;;;;;;;8.40;99.90;;;;;;5046635;28;20346;-70
2023/12/10 06:05:44;;;;;;;;;;;8.40;99.90;;;;;;5044868;28;19931;-70
2023/12/10 06:08:10;;;;;;;;;;;8.40;99.90;;;;;;5044932;28;19924;-70
2023/12/10 06:10:36;;;;;;;;;;;8.40;99.90;;;;;;5049497;28;19925;-70
2023/12/10 06:13:02;;;;;;;;;;;8.50;99.90;;;;;;5053201;28;19960;-70
2023/12/10 06:15:28;;;;;;;;;;;8.40;99.90;;;;;;5050890;28;19937;-70
2023/12/10 06:17:54;;;;;;;;;;;8.50;99.90;;;;;;5052587;28;20358;-70
2023/12/10 06:20:19;;;;;;;;;;;8.50;99.90;;;;;;5052779;28;20020;-71
2023/12/10 06:22:45;;;;;;;;;;;8.50;99.90;;;;;;5048155;28;19951;-70
2023/12/10 06:25:10;;;;;;;;;;;8.50;99.90;;;;;;5047914;28;20023;-71
2023/12/10 06:27:36;;;;;;;;;;;8.50;99.90;;;;;;5051120;28;19929;-70
2023/12/10 06:30:02;;;;;;;;;;;8.50;99.90;;;;;;5050892;28;19936;-70
2023/12/10 06:32:28;;;;;;;;;;;8.50;99.90;;;;;;5050348;28;20330;-71
2023/12/10 06:34:53;;;;;;;;;;;8.50;99.90;;;;;;5051131;28;19925;-71
2023/12/10 06:37:19;;;;;;;;;;;8.50;99.90;;;;;;5050444;28;20300;-70
2023/12/10 06:39:44;;;;;;;;;;;8.50;99.90;;;;;;5048975;28;19924;-71
2023/12/10 06:42:10;;;;;;;;;;;8.60;99.90;;;;;;5050133;28;19925;-79
2023/12/10 06:44:36;;;;;;;;;;;8.50;99.90;;;;;;5044615;28;19928;-77
2023/12/10 06:47:02;;;;;;;;;;;8.60;99.90;;;;;;5050425;28;20016;-77
2023/12/10 06:49:27;;;;;;;;;;;8.60;99.90;;;;;;5049952;28;19928;-77
2023/12/10 06:51:53;;;;;;;;;;;8.60;99.90;;;;;;5049805;28;19932;-79
2023/12/10 06:54:19;;;;;;;;;;;8.60;99.90;;;;;;5050388;28;20045;-77
2023/12/10 06:56:44;;;;;;;;;;;8.60;99.90;;;;;;5047823;28;19932;-77
2023/12/10 06:59:10;;;;;;;;;;;8.70;99.90;;;;;;5046772;28;20312;-77
2023/12/10 07:01:37;;;;;;;;;;;8.60;99.90;;;;;;5049668;28;19979;-75
2023/12/10 07:04:04;;;;;;;;;;;8.60;99.90;;;;;;5049748;28;19920;-78
2023/12/10 07:06:29;;;;;;;;;;;8.70;99.90;;;;;;5048296;28;19928;-77
2023/12/10 07:08:55;;;;;;;;;;;8.60;99.90;;;;;;5041325;28;19921;-79
2023/12/10 07:11:20;;;;;;;;;;;8.70;99.90;;;;;;5049848;28;20391;-77
2023/12/10 07:13:48;;;;;;;;;;;8.60;99.90;;;;;;5050821;28;19926;-77
2023/12/10 07:16:14;;;;;;;;;;;8.60;99.90;;;;;;5051249;28;19924;-77
2023/12/10 07:18:40;;;;;;;;;;;8.60;99.90;;;;;;5052524;28;19932;-76
2023/12/10 07:21:06;;;;;;;;;;;8.60;99.90;;;;;;5047583;28;19935;-75
2023/12/10 07:23:33;;;;;;;;;;;8.60;99.90;;;;;;5052173;28;19924;-75
2023/12/10 07:25:59;;;;;;;;;;;8.60;99.90;;;;;;5050591;28;19925;-76
2023/12/10 07:28:24;;;;;;;;;;;8.60;99.90;;;;;;5049617;28;20380;-75
2023/12/10 07:30:52;;;;;;;;;;;8.60;99.90;;;;;;5050824;28;20011;-76
2023/12/10 07:33:18;;;;;;;;;;;8.60;99.90;;;;;;5046799;28;20016;-76
2023/12/10 07:35:43;;;;;;;;;;;8.60;99.90;;;;;;5050351;28;19925;-76
2023/12/10 07:38:09;;;;;;;;;;;8.70;99.90;;;;;;5045666;28;19932;-76
2023/12/10 07:40:34;;;;;;;;;;;8.70;99.90;;;;;;5040506;28;19929;-77
2023/12/10 07:43:00;;;;;;;;;;;8.70;99.90;;;;;;5050052;28;20383;-77
2023/12/10 07:45:26;;;;;;;;;;;8.70;99.90;;;;;;5038963;28;19945;-78
2023/12/10 07:47:51;;;;;;;;;;;8.70;99.90;;;;;;5042412;28;19951;-77
2023/12/10 07:50:17;;;;;;;;;;;8.70;99.90;;;;;;5051157;28;19928;-78
2023/12/10 07:52:42;;;;;;;;;;;8.70;99.90;;;;;;5048091;28;19929;-77
2023/12/10 07:55:08;;;;;;;;;;;8.80;99.90;;;;;;5049675;28;19933;-78
2023/12/10 07:57:33;;;;;;;;;;;8.70;99.90;;;;;;5051192;28;20300;-77
2023/12/10 07:59:59;;;;;;;;;;;8.80;99.90;;;;;;5049509;28;19991;-77
2023/12/10 08:02:25;;;;;;;;;;;8.80;99.90;;;;;;5050038;28;20038;-78
2023/12/10 08:04:51;;;;;;;;;;;8.80;99.90;;;;;;5049616;28;19925;-77
2023/12/10 08:07:16;;;;;;;;;;;8.80;99.90;;;;;;5050724;28;19933;-77
2023/12/10 08:09:42;;;;;;;;;;;8.70;99.90;;;;;;5049668;28;20303;-78
2023/12/10 08:12:08;;;;;;;;;;;8.70;99.90;;;;;;5049349;28;20273;-77
2023/12/10 08:14:33;;;;;;;;;;;8.70;99.90;;;;;;5050191;28;20514;-76
2023/12/10 08:16:59;;;;;;;;;;;8.80;99.90;;;;;;5049175;28;19925;-77
2023/12/10 08:19:25;;;;;;;;;;;8.70;99.90;;;;;;5037872;28;19983;-76
2023/12/10 08:21:51;;;;;;;;;;;8.70;99.90;;;;;;5039273;28;19925;-77
2023/12/10 08:24:17;;;;;;;;;;;8.70;99.90;;;;;;5042476;28;19929;-77
2023/12/10 08:26:43;;;;;;;;;;;8.70;99.90;;;;;;5039955;28;20375;-78
2023/12/10 08:29:08;;;;;;;;;;;8.70;99.90;;;;;;5034420;28;19929;-78
2023/12/10 08:31:34;;;;;;;;;;;8.80;99.90;;;;;;5036236;28;19991;-77
2023/12/10 08:34:00;;;;;;;;;;;8.70;99.90;;;;;;5034072;28;19933;-78
2023/12/10 08:36:26;;;;;;;;;;;8.70;99.90;;;;;;5034792;28;20331;-76
2023/12/10 08:38:51;;;;;;;;;;;8.80;99.90;;;;;;5039800;28;19925;-78
2023/12/10 08:41:17;;;;;;;;;;;8.70;99.90;;;;;;5049890;28;20055;-78
2023/12/10 08:43:42;;;;;;;;;;;8.80;99.90;;;;;;5043701;28;20048;-77
2023/12/10 08:46:08;;;;;;;;;;;8.70;99.90;;;;;;5040956;28;20478;-78
2023/12/10 08:48:33;;;;;;;;;;;8.70;99.90;;;;;;5041738;28;19932;-77
2023/12/10 08:50:59;;;;;;;;;;;8.70;99.90;;;;;;5047280;28;20023;-77
2023/12/10 08:53:25;;;;;;;;;;;8.70;99.90;;;;;;5048960;28;19928;-77
2023/12/10 08:55:50;;;;;;;;;;;8.70;99.90;;;;;;5049491;28;19928;-77
2023/12/10 08:58:16;;;;;;;;;;;8.70;99.90;;;;;;5048939;28;19921;-77
2023/12/10 09:00:42;;;;;;;;;;;8.70;99.90;;;;;;5051672;28;19940;-77
2023/12/10 09:03:07;;;;;;;;;;;8.70;99.90;;;;;;5048412;28;20348;-78
2023/12/10 09:05:33;;;;;;;;;;;8.60;99.90;;;;;;5047713;28;19925;-78
2023/12/10 09:07:59;;;;;;;;;;;8.70;99.90;;;;;;5048259;28;20395;-77
2023/12/10 09:10:24;;;;;;;;;;;8.70;99.90;;;;;;5049584;28;20445;-77
2023/12/10 09:12:50;;;;;;;;;;;8.70;99.90;;;;;;5048099;28;19925;-78
2023/12/10 09:15:15;;;;;;;;;;;8.70;99.90;;;;;;5047893;28;20384;-76
2023/12/10 09:17:41;;;;;;;;;;;8.70;99.90;;;;;;5047698;28;19979;-75
2023/12/10 09:20:07;;;;;;;;;;;8.70;99.90;;;;;;5047486;28;19929;-75
2023/12/10 09:22:35;;;;;;;;;;;8.70;99.90;;;;;;5048251;28;20210;-76
2023/12/10 09:25:02;;;;;;;;;;;8.70;99.90;;;;;;5046836;28;19948;-76
2023/12/10 09:27:28;;;;;;;;;;;8.60;99.90;;;;;;5047863;28;19978;-76
2023/12/10 09:29:53;;;;;;;;;;;8.60;99.90;;;;;;5049075;28;19925;-76
2023/12/10 09:32:23;;;;;;;;;;;8.60;99.90;;;;;;5048117;28;20501;-78
2023/12/10 09:34:50;;;;;;;;;;;8.60;99.90;;;;;;5048309;28;19924;-75
2023/12/10 09:37:16;;;;;;;;;;;8.60;99.90;;;;;;5048240;28;20015;-75
2023/12/10 09:39:42;;;;;;;;;;;8.60;99.90;;;;;;5045301;28;19939;-77
2023/12/10 09:42:07;;;;;;;;;;;8.60;99.90;;;;;;5045724;28;19929;-77
2023/12/10 09:44:33;;;;;;;;;;;8.60;99.90;;;;;;5040525;28;19929;-76
2023/12/10 09:46:59;;;;;;;;;;;8.60;99.90;;;;;;5033548;28;19986;-75
2023/12/10 09:49:27;;;;;;;;;;;8.60;99.90;;;;;;5048245;28;20019;-78
2023/12/10 09:51:52;;;;;;;;;;;8.60;99.90;;;;;;5028520;28;20371;-76
2023/12/10 09:54:20;;;;;;;;;;;8.60;99.90;;;;;;5037205;28;19931;-76
2023/12/10 09:56:49;;;;;;;;;;;8.60;99.90;;;;;;5049534;28;20373;-76
2023/12/10 09:59:16;;;;;;;;;;;8.60;99.90;;;;;;5047780;28;20351;-78
2023/12/10 10:01:49;;;;;;;;;;;8.70;99.90;;;;;;5048614;28;19932;-76
2023/12/10 10:04:15;;;;;;;;;;;8.60;99.90;;;;;;5045016;28;20375;-78
2023/12/10 10:06:40;;;;;;;;;;;8.70;99.90;;;;;;5048888;28;19935;-77
2023/12/10 10:09:06;;;;;;;;;;;8.60;99.90;;;;;;5044331;28;20002;-76
2023/12/10 10:11:31;;;;;;;;;;;8.60;99.90;;;;;;5045169;28;19982;-76
2023/12/10 10:13:57;;;;;;;;;;;8.60;99.90;;;;;;5047436;28;20278;-75
2023/12/10 10:16:23;;;;;;;;;;;8.70;99.90;;;;;;5048351;28;19924;-76
2023/12/10 10:18:49;;;;;;;;;;;8.60;99.90;;;;;;5044295;28;20016;-76
2023/12/10 10:21:15;;;;;;;;;;;8.60;99.90;;;;;;5047311;28;19928;-75
2023/12/10 10:23:41;;;;;;;;;;;8.60;99.90;;;;;;5048119;28;19925;-76
2023/12/10 10:26:07;;;;;;;;;;;8.60;99.90;;;;;;5048686;28;19950;-76
2023/12/10 10:28:34;;;;;;;;;;;8.60;99.90;;;;;;5047215;28;19952;-76
2023/12/10 10:31:01;;;;;;;;;;;8.70;99.90;;;;;;5048474;28;20031;-79
2023/12/10 10:33:26;;;;;;;;;;;8.70;99.90;;;;;;5046705;28;19964;-78
2023/12/10 10:35:52;;;;;;;;;;;8.60;99.90;;;;;;5048668;28;19975;-76
2023/12/10 10:38:20;;;;;;;;;;;8.60;99.90;;;;;;5046587;28;19955;-77
2023/12/10 10:40:49;;;;;;;;;;;8.60;99.90;;;;;;5047700;28;19925;-76
2023/12/10 10:43:15;;;;;;;;;;;8.60;99.90;;;;;;5043393;28;19968;-77
2023/12/10 10:45:41;;;;;;;;;;;8.70;99.90;;;;;;5041225;28;19971;-75
2023/12/10 10:48:08;;;;;;;;;;;8.60;99.90;;;;;;5041900;28;19983;-76
2023/12/10 10:50:35;;;;;;;;;;;8.60;99.90;;;;;;5032436;28;19936;-79
2023/12/10 10:53:01;;;;;;;;;;;8.70;99.90;;;;;;5032480;28;20334;-77
2023/12/10 10:55:26;;;;;;;;;;;8.60;99.90;;;;;;5046064;28;19925;-79
2023/12/10 10:57:54;;;;;;;;;;;8.60;99.90;;;;;;5048520;28;20031;-76
2023/12/10 11:00:22;;;;;;;;;;;8.60;99.90;;;;;;5051261;28;20012;-76
2023/12/10 11:02:52;;;;;;;;;;;8.70;99.90;;;;;;5052104;28;19980;-79
2023/12/10 11:05:29;;;;;;;;;;;8.70;99.90;;;;;;5051927;28;19929;-76
2023/12/10 11:07:55;;;;;;;;;;;8.70;99.90;;;;;;5051794;28;20408;-76
2023/12/10 11:10:21;;;;;;;;;;;8.70;99.90;;;;;;5048874;28;19978;-76
2023/12/10 11:12:48;;;;;;;;;;;8.70;99.90;;;;;;5050005;28;19933;-76
2023/12/10 11:15:17;;;;;;;;;;;8.70;99.90;;;;;;5050982;28;19925;-76
2023/12/10 11:17:56;;;;;;;;;;;8.70;99.90;;;;;;5044692;28;19933;-75
2023/12/10 11:20:31;;;;;;;;;;;8.70;99.90;;;;;;5041864;28;19925;-77
2023/12/10 11:22:57;;;;;;;;;;;8.70;99.90;;;;;;5044705;28;19983;-76
2023/12/10 11:25:23;;;;;;;;;;;8.70;99.90;;;;;;5040730;28;20304;-76
2023/12/10 11:27:48;;;;;;;;;;;8.70;99.90;;;;;;5034154;28;19925;-77
2023/12/10 11:30:14;;;;;;;;;;;8.70;99.90;;;;;;5038309;28;19928;-77
2023/12/10 11:32:40;;;;;;;;;;;8.70;99.90;;;;;;5037842;28;20341;-78
2023/12/10 11:35:05;;;;;;;;;;;8.80;99.90;;;;;;5052245;28;19925;-79
2023/12/10 11:37:31;;;;;;;;;;;8.80;99.90;;;;;;5045305;28;20388;-80
2023/12/10 11:39:56;;;;;;;;;;;8.80;99.90;;;;;;5048830;28;19925;-79
2023/12/10 11:42:22;;;;;;;;;;;8.90;99.90;;;;;;5048742;28;19979;-81
2023/12/10 11:44:47;;;;;;;;;;;8.90;99.90;;;;;;5049744;28;19929;-81
2023/12/10 11:47:13;;;;;;;;;;;8.90;99.90;;;;;;5050306;28;20257;-81
2023/12/10 11:49:39;;;;;;;;;;;8.90;99.90;;;;;;5046052;28;19925;-81
2023/12/10 11:52:04;;;;;;;;;;;8.80;99.90;;;;;;5050292;28;19924;-79
2023/12/10 11:54:30;;;;;;;;;;;8.80;99.90;;;;;;5050638;28;19932;-80
2023/12/10 11:56:57;;;;;;;;;;;8.90;99.90;;;;;;5048040;28;20396;-80
2023/12/10 11:59:23;;;;;;;;;;;8.90;99.90;;;;;;5048305;28;20300;-82
2023/12/10 12:01:48;;;;;;;;;;;8.90;99.90;;;;;;5050855;28;19925;-80
2023/12/10 12:04:15;;;;;;;;;;;9.00;99.90;;;;;;5044506;28;19956;-80
2023/12/10 12:06:41;;;;;;;;;;;9.00;99.90;;;;;;5042421;28;19983;-77
2023/12/10 12:09:08;;;;;;;;;;;9.00;99.90;;;;;;5040234;28;19978;-79
2023/12/10 12:11:34;;;;;;;;;;;9.00;99.90;;;;;;5039927;28;19925;-83
2023/12/10 12:14:00;;;;;;;;;;;9.00;99.90;;;;;;5031691;28;19931;-80
2023/12/10 12:16:26;;;;;;;;;;;9.00;99.90;;;;;;5041461;28;19944;-79
2023/12/10 12:18:51;;;;;;;;;;;9.00;99.90;;;;;;5051363;28;19925;-80
2023/12/10 12:21:17;;;;;;;;;;;8.90;99.90;;;;;;5031870;28;19956;-79
2023/12/10 12:23:43;;;;;;;;;;;8.90;99.90;;;;;;5031354;28;19925;-79
2023/12/10 12:26:08;;;;;;;;;;;8.90;99.90;;;;;;5049214;28;20292;-79
2023/12/10 12:28:34;;;;;;;;;;;8.90;99.90;;;;;;5048722;28;19925;-81
2023/12/10 12:30:59;;;;;;;;;;;8.90;99.90;;;;;;5049827;28;20265;-80
2023/12/10 12:33:25;;;;;;;;;;;8.90;99.90;;;;;;5049294;28;19936;-79
2023/12/10 12:35:50;;;;;;;;;;;8.90;99.90;;;;;;5047231;28;19925;-78
2023/12/10 12:38:16;;;;;;;;;;;8.90;99.90;;;;;;5048270;28;19986;-79
2023/12/10 12:40:42;;;;;;;;;;;8.90;99.90;;;;;;5042350;28;19924;-80
2023/12/10 12:43:07;;;;;;;;;;;8.90;99.90;;;;;;5039271;28;19933;-80
2023/12/10 12:45:33;;;;;;;;;;;8.90;99.90;;;;;;5047043;28;20083;-79
2023/12/10 12:47:58;;;;;;;;;;;9.00;99.90;;;;;;5035583;28;19972;-78
2023/12/10 12:50:24;;;;;;;;;;;9.00;99.90;;;;;;5040636;28;20461;-77
2023/12/10 12:52:50;;;;;;;;;;;9.00;99.90;;;;;;5046259;28;19925;-79
2023/12/10 12:55:16;;;;;;;;;;;9.00;99.90;;;;;;5038379;28;20376;-77
2023/12/10 12:57:41;;;;;;;;;;;9.00;99.90;;;;;;5034971;28;19932;-78
2023/12/10 13:00:07;;;;;;;;;;;9.10;99.90;;;;;;5027979;28;20179;-78
2023/12/10 13:02:33;;;;;;;;;;;9.10;99.90;;;;;;5047447;28;20341;-77
2023/12/10 13:04:58;;;;;;;;;;;9.10;99.90;;;;;;5049006;28;19932;-78
2023/12/10 13:07:24;;;;;;;;;;;9.00;99.90;;;;;;5047550;28;20037;-78
2023/12/10 13:09:49;;;;;;;;;;;9.00;99.90;;;;;;5046403;28;20012;-76
2023/12/10 13:12:16;;;;;;;;;;;9.00;99.90;;;;;;5048325;28;20420;-77
2023/12/10 13:14:42;;;;;;;;;;;9.00;99.90;;;;;;5049709;28;19924;-77
2023/12/10 13:17:07;;;;;;;;;;;9.00;99.90;;;;;;5047218;28;20343;-78
2023/12/10 13:19:33;;;;;;;;;;;9.00;99.90;;;;;;5048711;28;20007;-78
2023/12/10 13:21:58;;;;;;;;;;;9.00;99.90;;;;;;5050095;28;19932;-77
2023/12/10 13:24:24;;;;;;;;;;;9.00;99.90;;;;;;5046231;28;19929;-77
2023/12/10 13:26:49;;;;;;;;;;;9.00;99.90;;;;;;5047301;28;20376;-77
2023/12/10 13:29:15;;;;;;;;;;;9.00;99.90;;;;;;5049215;28;20019;-77
2023/12/10 13:31:41;;;;;;;;;;;8.90;99.90;;;;;;5048255;28;19925;-77
2023/12/10 13:34:07;;;;;;;;;;;8.90;99.90;;;;;;5048036;28;20012;-78
2023/12/10 13:36:33;;;;;;;;;;;8.90;99.90;;;;;;5048823;28;20427;-79
2023/12/10 13:38:58;;;;;;;;;;;8.90;99.90;;;;;;5045735;28;20135;-77
2023/12/10 13:41:24;;;;;;;;;;;8.90;99.90;;;;;;5048243;28;19979;-77
2023/12/10 13:43:50;;;;;;;;;;;8.80;99.90;;;;;;5048180;28;19931;-78
2023/12/10 13:46:16;;;;;;;;;;;8.80;99.90;;;;;;5040533;28;20424;-78
2023/12/10 13:48:42;;;;;;;;;;;8.80;99.90;;;;;;5048381;28;19932;-78
2023/12/10 13:51:07;;;;;;;;;;;8.80;99.90;;;;;;5042993;28;20455;-78
2023/12/10 13:53:33;;;;;;;;;;;8.80;99.90;;;;;;5047629;28;19924;-76
2023/12/10 13:55:59;;;;;;;;;;;8.80;99.90;;;;;;5048402;28;19925;-77
2023/12/10 13:58:25;;;;;;;;;;;8.80;99.90;;;;;;5046818;28;19924;-78
2023/12/10 14:00:50;;;;;;;;;;;8.80;99.90;;;;;;5048141;28;19924;-78
2023/12/10 14:03:16;;;;;;;;;;;8.80;99.90;;;;;;5048234;28;20046;-78
2023/12/10 14:05:42;;;;;;;;;;;8.80;99.90;;;;;;5031465;28;19933;-78
2023/12/10 14:08:08;;;;;;;;;;;8.80;99.90;;;;;;5031122;28;19929;-77
2023/12/10 14:10:33;;;;;;;;;;;8.80;99.90;;;;;;5043170;28;19925;-77
2023/12/10 14:12:59;;;;;;;;;;;8.80;99.90;;;;;;5046302;28;20031;-77
2023/12/10 14:15:24;;;;;;;;;;;8.80;99.90;;;;;;5046109;28;20276;-77
2023/12/10 14:17:50;;;;;;;;;;;8.70;99.90;;;;;;5035578;28;20376;-75
2023/12/10 14:20:16;;;;;;;;;;;8.80;99.90;;;;;;5037591;28;19925;-77
2023/12/10 14:22:41;;;;;;;;;;;8.70;99.90;;;;;;5040944;28;19932;-77